createdAt,value
2023-10-24T00:02:18.387Z,9.23
2023-10-24T00:04:45.807Z,9.19
2023-10-24T00:07:13.276Z,9.15
2023-10-24T00:09:40.587Z,9.16
2023-10-24T00:12:08.180Z,9.22
2023-10-24T00:14:35.581Z,9.22
2023-10-24T00:17:03.146Z,9.18
2023-10-24T00:19:30.834Z,9.11
2023-10-24T00:21:58.227Z,9.06
2023-10-24T00:24:27.290Z,8.99
2023-10-24T00:26:56.581Z,8.99
2023-10-24T00:29:24.058Z,9.03
2023-10-24T00:31:51.587Z,9.02
2023-10-24T00:34:19.205Z,8.97
2023-10-24T00:36:47.057Z,8.91
2023-10-24T00:39:14.359Z,8.84
2023-10-24T00:41:41.814Z,8.74
2023-10-24T00:44:09.697Z,8.67
2023-10-24T00:46:37.831Z,8.70
2023-10-24T00:49:05.360Z,8.74
2023-10-24T00:51:33.734Z,8.71
2023-10-24T00:54:03.221Z,8.67
2023-10-24T00:56:30.845Z,8.62
2023-10-24T00:58:58.646Z,8.55
2023-10-24T01:01:26.105Z,8.43
2023-10-24T01:03:53.688Z,8.43
2023-10-24T01:06:21.248Z,8.49
2023-10-24T01:08:48.715Z,8.52
2023-10-24T01:11:16.141Z,8.50
2023-10-24T01:13:43.614Z,8.46
2023-10-24T01:16:11.191Z,8.43
2023-10-24T01:18:38.701Z,8.40
2023-10-24T01:21:06.649Z,8.38
2023-10-24T01:23:34.058Z,8.39
2023-10-24T01:26:01.512Z,8.45
2023-10-24T01:28:29.594Z,8.47
2023-10-24T01:30:57.074Z,8.44
2023-10-24T01:33:24.721Z,8.41
2023-10-24T01:35:52.312Z,8.39
2023-10-24T01:38:20.091Z,8.36
2023-10-24T01:40:47.702Z,8.31
2023-10-24T01:43:15.221Z,8.32
2023-10-24T01:45:42.675Z,8.38
2023-10-24T01:48:10.033Z,8.38
2023-10-24T01:50:37.432Z,8.34
2023-10-24T01:53:04.839Z,8.29
2023-10-24T01:55:32.235Z,8.21
2023-10-24T01:57:59.630Z,8.16
2023-10-24T02:00:27.167Z,8.11
2023-10-24T02:02:55.413Z,8.12
2023-10-24T02:05:23.095Z,8.19
2023-10-24T02:07:50.554Z,8.22
2023-10-24T02:10:18.070Z,8.20
2023-10-24T02:12:46.828Z,8.15
2023-10-24T02:15:14.144Z,8.10
2023-10-24T02:17:44.450Z,8.03
2023-10-24T02:20:12.064Z,7.96
2023-10-24T02:22:39.790Z,7.94
2023-10-24T02:25:09.676Z,7.97
2023-10-24T02:27:37.716Z,7.97
2023-10-24T02:30:06.280Z,7.94
2023-10-24T02:32:33.911Z,7.90
2023-10-24T02:35:01.281Z,7.85
2023-10-24T02:37:28.722Z,7.81
2023-10-24T02:39:56.284Z,7.77
2023-10-24T02:42:23.585Z,7.78
2023-10-24T02:44:51.044Z,7.82
2023-10-24T02:47:18.465Z,7.79
2023-10-24T02:49:45.981Z,7.70
2023-10-24T02:52:13.519Z,7.64
2023-10-24T02:54:40.971Z,7.57
2023-10-24T02:57:08.729Z,7.53
2023-10-24T02:59:36.024Z,7.50
2023-10-24T03:02:03.573Z,7.51
2023-10-24T03:04:30.960Z,7.55
2023-10-24T03:06:58.380Z,7.56
2023-10-24T03:09:25.914Z,7.55
2023-10-24T03:11:53.311Z,7.50
2023-10-24T03:14:20.719Z,7.46
2023-10-24T03:16:50.221Z,7.41
2023-10-24T03:19:17.878Z,7.37
2023-10-24T03:21:45.777Z,7.41
2023-10-24T03:24:13.192Z,7.48
2023-10-24T03:26:40.557Z,7.52
2023-10-24T03:29:07.905Z,7.49
2023-10-24T03:31:35.279Z,7.46
2023-10-24T03:34:04.257Z,7.41
2023-10-24T03:36:31.640Z,7.34
2023-10-24T03:38:58.963Z,7.30
2023-10-24T03:41:26.333Z,7.31
2023-10-24T03:43:53.759Z,7.33
2023-10-24T03:46:21.143Z,7.33
2023-10-24T03:48:48.662Z,7.32
2023-10-24T03:51:16.020Z,7.31
2023-10-24T03:53:43.379Z,7.29
2023-10-24T03:56:10.700Z,7.26
2023-10-24T03:58:38.034Z,7.27
2023-10-24T04:01:05.911Z,7.31
2023-10-24T04:03:33.599Z,7.33
2023-10-24T04:06:01.167Z,7.27
2023-10-24T04:08:28.492Z,7.17
2023-10-24T04:10:55.810Z,7.07
2023-10-24T04:13:23.338Z,7.01
2023-10-24T04:15:53.503Z,7.06
2023-10-24T04:18:20.880Z,7.18
2023-10-24T04:20:48.424Z,7.24
2023-10-24T04:23:16.273Z,7.24
2023-10-24T04:25:43.882Z,7.22
2023-10-24T04:28:11.347Z,7.19
2023-10-24T04:30:42.327Z,7.15
2023-10-24T04:33:10.412Z,7.09
2023-10-24T04:35:42.766Z,7.12
2023-10-24T04:38:13.231Z,7.19
2023-10-24T04:40:40.837Z,7.23
2023-10-24T04:43:08.784Z,7.23
2023-10-24T04:45:36.881Z,7.18
2023-10-24T04:48:05.159Z,7.12
2023-10-24T04:50:32.863Z,7.06
2023-10-24T04:53:00.308Z,7.00
2023-10-24T04:55:29.147Z,7.01
2023-10-24T04:57:56.730Z,7.07
2023-10-24T05:00:26.005Z,7.08
2023-10-24T05:02:53.757Z,7.07
2023-10-24T05:05:21.471Z,7.04
2023-10-24T05:07:50.312Z,7.02
2023-10-24T05:10:17.950Z,6.95
2023-10-24T05:12:45.361Z,6.93
2023-10-24T05:15:12.910Z,6.94
2023-10-24T05:17:40.647Z,6.95
2023-10-24T05:20:08.908Z,6.96
2023-10-24T05:22:36.497Z,6.96
2023-10-24T05:25:04.210Z,6.94
2023-10-24T05:27:33.240Z,6.93
2023-10-24T05:30:01.042Z,6.97
2023-10-24T05:32:28.668Z,7.03
2023-10-24T05:34:56.362Z,7.07
2023-10-24T05:37:23.929Z,7.13
2023-10-24T05:39:51.391Z,7.21
2023-10-24T05:42:18.733Z,7.30
2023-10-24T05:44:46.144Z,7.46
2023-10-24T05:47:13.517Z,7.65
2023-10-24T05:49:40.974Z,7.80
2023-10-24T05:52:08.384Z,7.92
2023-10-24T05:54:37.328Z,8.01
2023-10-24T05:57:05.081Z,8.10
2023-10-24T05:59:34.248Z,8.25
2023-10-24T06:02:01.972Z,8.42
2023-10-24T06:04:29.405Z,8.55
2023-10-24T06:06:56.776Z,8.59
2023-10-24T06:09:24.103Z,8.57
2023-10-24T06:11:53.622Z,8.52
2023-10-24T06:14:21.077Z,8.48
2023-10-24T06:16:48.457Z,8.53
2023-10-24T06:19:15.965Z,8.59
2023-10-24T06:21:43.285Z,8.50
2023-10-24T06:24:10.695Z,8.41
2023-10-24T06:26:38.080Z,8.45
2023-10-24T06:29:05.394Z,8.55
2023-10-24T06:31:32.890Z,8.64
2023-10-24T06:34:09.924Z,8.78
2023-10-24T06:36:37.428Z,8.88
2023-10-24T06:39:05.283Z,8.96
2023-10-24T06:41:33.150Z,9.06
2023-10-24T06:44:00.545Z,9.18
2023-10-24T06:46:28.154Z,9.28
2023-10-24T06:48:55.635Z,9.44
2023-10-24T06:51:23.369Z,9.64
2023-10-24T06:53:50.778Z,9.76
2023-10-24T06:56:20.816Z,9.80
2023-10-24T06:58:49.545Z,9.85
2023-10-24T07:01:16.958Z,9.85
2023-10-24T07:03:44.386Z,9.81
2023-10-24T07:06:14.664Z,9.80
2023-10-24T07:08:43.499Z,9.87
2023-10-24T07:11:10.895Z,9.98
2023-10-24T07:13:38.462Z,10.08
2023-10-24T07:16:16.481Z,10.15
2023-10-24T07:18:44.275Z,10.22
2023-10-24T07:21:12.896Z,10.32
2023-10-24T07:23:40.270Z,10.45
2023-10-24T07:26:07.691Z,10.57
2023-10-24T07:28:35.245Z,10.66
2023-10-24T07:31:03.506Z,10.71
2023-10-24T07:33:30.943Z,10.74
2023-10-24T07:36:06.940Z,10.78
2023-10-24T07:38:34.457Z,10.88
2023-10-24T07:41:01.904Z,10.97
2023-10-24T07:43:29.362Z,11.02
2023-10-24T07:45:56.916Z,11.07
2023-10-24T07:48:25.265Z,11.12
2023-10-24T07:50:57.274Z,11.18
2023-10-24T07:53:25.684Z,11.24
2023-10-24T08:44:46.224Z,12.25
2023-10-24T08:47:13.311Z,12.75
2023-10-24T08:49:40.297Z,12.89
2023-10-24T08:52:22.534Z,12.99
2023-10-24T08:54:54.277Z,13.08
2023-10-24T08:57:27.229Z,13.15
2023-10-24T08:59:55.520Z,13.22
2023-10-24T09:02:22.346Z,13.30
2023-10-24T09:04:51.187Z,13.41
2023-10-24T09:07:17.990Z,13.54
2023-10-24T09:09:44.907Z,13.70
2023-10-24T09:12:15.268Z,13.79
2023-10-24T09:15:16.958Z,13.79
2023-10-24T09:18:16.426Z,13.78
2023-10-24T09:20:46.811Z,13.78
2023-10-24T09:23:24.039Z,13.79
2023-10-24T09:25:50.808Z,13.78
2023-10-24T09:28:18.867Z,13.82
2023-10-24T09:30:45.810Z,13.87
2023-10-24T09:33:12.753Z,13.86
2023-10-24T09:35:40.174Z,13.82
2023-10-24T09:38:10.149Z,13.78
2023-10-24T09:40:38.143Z,13.75
2023-10-24T09:43:13.655Z,13.71
2023-10-24T09:45:41.490Z,13.68
2023-10-24T09:48:09.326Z,13.73
2023-10-24T09:50:40.427Z,13.84
2023-10-24T09:53:07.571Z,13.93
2023-10-24T09:55:35.136Z,13.99
2023-10-24T09:58:03.778Z,14.03
2023-10-24T10:00:32.034Z,14.06
2023-10-24T10:03:01.053Z,14.08
2023-10-24T10:05:30.451Z,14.08
2023-10-24T10:07:59.185Z,14.16
2023-10-24T10:10:26.192Z,14.27
2023-10-24T10:12:56.458Z,14.34
2023-10-24T10:15:38.227Z,14.37
2023-10-24T10:18:13.133Z,14.40
2023-10-24T10:21:25.711Z,14.42
2023-10-24T10:24:20.697Z,14.42
2023-10-24T10:27:18.844Z,14.47
2023-10-24T10:30:24.458Z,14.53
2023-10-24T10:33:12.862Z,14.52
2023-10-24T10:35:48.686Z,14.51
2023-10-24T10:38:48.050Z,14.48
2023-10-24T10:41:22.062Z,14.44
2023-10-24T10:43:49.126Z,14.41
2023-10-24T10:46:17.093Z,14.43
2023-10-24T10:48:57.704Z,14.47
2023-10-24T10:54:53.496Z,14.50
2023-10-24T10:57:30.367Z,14.47
2023-10-24T11:00:05.084Z,14.47
2023-10-24T11:02:51.480Z,14.47
2023-10-24T11:05:45.312Z,14.56
2023-10-24T11:08:19.351Z,14.67
2023-10-24T11:11:08.242Z,14.71
2023-10-24T11:13:44.209Z,14.70
2023-10-24T11:16:25.434Z,14.68
2023-10-24T11:18:57.332Z,14.65
2023-10-24T11:21:24.127Z,14.62
2023-10-24T11:23:51.604Z,14.66
2023-10-24T11:26:18.461Z,14.72
2023-10-24T11:28:45.386Z,14.71
2023-10-24T11:31:38.613Z,14.68
2023-10-24T11:34:05.331Z,14.64
2023-10-24T11:36:32.359Z,14.61
2023-10-24T11:39:04.779Z,14.59
2023-10-24T11:41:31.737Z,14.63
2023-10-24T11:43:59.080Z,14.69
2023-10-24T11:46:25.885Z,14.72
2023-10-24T11:48:52.822Z,14.71
2023-10-24T11:51:20.045Z,14.70
2023-10-24T11:53:46.975Z,14.70
2023-10-24T11:56:13.993Z,14.74
2023-10-24T11:58:42.170Z,14.83
2023-10-24T12:01:08.913Z,14.95
2023-10-24T12:03:47.680Z,15.01
2023-10-24T12:06:20.116Z,15.03
2023-10-24T12:08:48.673Z,15.03
2023-10-24T12:11:16.132Z,15.03
2023-10-24T12:13:45.967Z,15.01
2023-10-24T12:16:15.796Z,15.07
2023-10-24T12:18:44.473Z,15.14
2023-10-24T12:21:17.429Z,15.17
2023-10-24T12:23:46.344Z,15.16
2023-10-24T12:26:14.510Z,15.15
2023-10-24T12:28:49.172Z,15.12
2023-10-24T12:31:16.221Z,15.11
2023-10-24T12:33:43.362Z,15.16
2023-10-24T12:36:10.463Z,15.22
2023-10-24T12:38:38.266Z,15.26
2023-10-24T12:41:05.217Z,15.24
2023-10-24T12:43:32.625Z,15.21
2023-10-24T12:45:59.673Z,15.19
2023-10-24T12:48:27.446Z,15.18
2023-10-24T12:50:54.289Z,15.24
2023-10-24T12:53:23.778Z,15.31
2023-10-24T12:55:51.198Z,15.34
2023-10-24T12:58:18.146Z,15.33
2023-10-24T13:00:46.348Z,15.32
2023-10-24T13:03:17.795Z,15.31
2023-10-24T13:05:48.337Z,15.27
2023-10-24T13:08:15.329Z,15.23
2023-10-24T13:10:42.289Z,15.26
2023-10-24T13:13:09.109Z,15.34
2023-10-24T13:15:36.740Z,15.39
2023-10-24T13:18:04.381Z,15.42
2023-10-24T13:20:31.373Z,15.43
2023-10-24T13:22:58.120Z,15.42
2023-10-24T13:25:26.705Z,15.39
2023-10-24T13:27:56.106Z,15.37
2023-10-24T13:30:37.816Z,15.41
2023-10-24T13:33:10.119Z,15.44
2023-10-24T13:38:07.494Z,15.41
2023-10-24T13:40:34.572Z,15.37
2023-10-24T13:43:03.226Z,15.33
2023-10-24T13:45:30.277Z,15.29
2023-10-24T13:47:57.325Z,15.26
2023-10-24T13:50:24.140Z,15.29
2023-10-24T13:52:51.926Z,15.34
2023-10-24T13:55:18.908Z,15.35
2023-10-24T13:57:48.115Z,15.35
2023-10-24T14:00:15.567Z,15.34
2023-10-24T14:02:42.991Z,15.35
2023-10-24T14:05:10.218Z,15.35
2023-10-24T14:19:32.075Z,16.28
2023-10-24T14:22:00.154Z,16.45
2023-10-24T14:24:28.037Z,16.36
2023-10-24T14:26:55.719Z,16.27
2023-10-24T14:29:25.732Z,16.16
2023-10-24T14:31:53.350Z,16.04
2023-10-24T14:34:21.398Z,16.00
2023-10-24T14:36:49.150Z,16.00
2023-10-24T14:39:16.869Z,15.99
2023-10-24T14:41:44.428Z,15.94
2023-10-24T14:44:12.057Z,15.88
2023-10-24T14:46:39.704Z,15.81
2023-10-24T14:49:07.847Z,15.74
2023-10-24T14:51:35.601Z,15.71
2023-10-24T14:54:03.760Z,15.70
2023-10-24T14:56:31.693Z,15.67
2023-10-24T14:58:59.211Z,15.59
2023-10-24T15:01:27.684Z,15.51
2023-10-24T15:03:55.760Z,15.41
2023-10-24T15:06:23.798Z,15.33
2023-10-24T15:08:52.633Z,15.31
2023-10-24T15:11:20.190Z,15.33
2023-10-24T15:13:47.677Z,15.31
2023-10-24T15:16:15.220Z,15.27
2023-10-24T15:18:42.923Z,15.22
2023-10-24T15:21:10.582Z,15.16
2023-10-24T15:23:38.480Z,15.12
2023-10-24T15:26:06.219Z,15.11
2023-10-24T15:28:33.716Z,15.13
2023-10-24T15:31:01.325Z,15.13
2023-10-24T15:33:28.841Z,15.06
2023-10-24T15:35:59.439Z,14.98
2023-10-24T15:41:58.640Z,14.96
2023-10-24T15:44:26.334Z,14.97
2023-10-24T15:46:56.198Z,14.94
2023-10-24T15:49:24.132Z,14.90
2023-10-24T15:51:54.300Z,14.84
2023-10-24T15:54:24.177Z,14.80
2023-10-24T15:56:51.741Z,14.79
2023-10-24T15:59:19.328Z,14.81
2023-10-24T16:01:48.839Z,14.80
2023-10-24T16:04:17.296Z,14.74
2023-10-24T16:06:45.195Z,14.67
2023-10-24T16:15:15.777Z,14.67
2023-10-24T16:17:43.579Z,14.64
2023-10-24T16:20:11.562Z,14.59
2023-10-24T16:22:39.805Z,14.53
2023-10-24T16:25:08.075Z,14.46
2023-10-24T16:27:35.560Z,14.46
2023-10-24T16:30:03.246Z,14.50
2023-10-24T16:32:30.969Z,14.51
2023-10-24T16:34:59.988Z,14.49
2023-10-24T16:37:27.902Z,14.45
2023-10-24T16:39:55.814Z,14.42
2023-10-24T16:42:23.518Z,14.45
2023-10-24T16:44:50.926Z,14.49
2023-10-24T16:47:19.016Z,14.51
2023-10-24T16:49:50.345Z,14.50
2023-10-24T16:52:18.337Z,14.46
2023-10-24T16:54:46.841Z,14.43
2023-10-24T16:57:14.570Z,14.46
2023-10-24T16:59:42.039Z,14.52
2023-10-24T17:02:09.783Z,14.54
2023-10-24T17:04:37.672Z,14.52
2023-10-24T17:07:05.232Z,14.48
2023-10-24T17:09:35.230Z,14.44
2023-10-24T17:16:18.396Z,14.59
2023-10-24T17:18:46.050Z,14.57
2023-10-24T17:21:13.897Z,14.54
2023-10-24T17:23:41.721Z,14.50
2023-10-24T17:26:09.648Z,14.46
2023-10-24T17:28:37.482Z,14.46
2023-10-24T17:31:05.169Z,14.44
2023-10-24T17:33:34.110Z,14.41
2023-10-24T17:36:04.177Z,14.35
2023-10-24T17:38:35.067Z,14.30
2023-10-24T17:41:04.762Z,14.29
2023-10-24T17:43:33.060Z,14.31
2023-10-24T17:46:05.309Z,14.31
2023-10-24T17:48:33.485Z,14.25
2023-10-24T17:51:06.977Z,14.12
2023-10-24T17:53:34.872Z,14.04
2023-10-24T17:56:02.932Z,14.03
2023-10-24T17:58:30.606Z,14.08
2023-10-24T18:00:58.148Z,14.10
2023-10-24T18:03:26.012Z,14.07
2023-10-24T18:05:53.633Z,13.99
2023-10-24T18:08:21.300Z,13.93
2023-10-24T18:10:49.025Z,13.96
2023-10-24T18:13:16.563Z,14.00
2023-10-24T18:15:44.654Z,14.01
2023-10-24T18:18:15.645Z,14.00
2023-10-24T18:20:43.516Z,14.00
2023-10-24T18:23:16.681Z,14.03
2023-10-24T18:25:54.723Z,14.08
2023-10-24T18:28:22.947Z,14.06
2023-10-24T18:30:50.584Z,14.05
2023-10-24T18:33:18.140Z,14.03
2023-10-24T18:35:48.255Z,14.06
2023-10-24T18:38:18.287Z,14.08
2023-10-24T18:40:49.673Z,14.01
2023-10-24T18:43:17.156Z,13.99
2023-10-24T18:45:44.682Z,13.98
2023-10-24T19:01:46.471Z,14.87
2023-10-24T19:04:14.374Z,14.97
2023-10-24T19:06:45.129Z,14.83
2023-10-24T19:09:12.811Z,14.69
2023-10-24T19:11:40.727Z,14.59
2023-10-24T19:14:11.373Z,14.55
2023-10-24T19:16:40.450Z,14.49
2023-10-24T19:19:10.856Z,14.40
2023-10-24T19:21:38.864Z,14.31
2023-10-24T19:24:06.912Z,14.21
2023-10-24T19:26:34.456Z,14.15
2023-10-24T19:29:02.578Z,14.14
2023-10-24T19:31:33.527Z,14.08
2023-10-24T19:34:01.460Z,13.96
2023-10-24T19:36:30.273Z,13.85
2023-10-24T19:38:58.006Z,13.77
2023-10-24T19:41:26.071Z,13.77
2023-10-24T19:43:54.041Z,13.80
2023-10-24T19:46:22.233Z,13.75
2023-10-24T19:48:49.911Z,13.70
2023-10-24T19:51:17.655Z,13.66
2023-10-24T19:53:45.875Z,13.68
2023-10-24T19:56:13.497Z,13.72
2023-10-24T19:58:43.952Z,13.73
2023-10-24T20:01:12.176Z,13.71
2023-10-24T20:03:40.200Z,13.69
2023-10-24T20:06:10.112Z,13.66
2023-10-24T20:08:43.213Z,13.66
2023-10-24T20:12:34.652Z,13.69
2023-10-24T20:13:58.901Z,13.73
2023-10-24T20:16:33.811Z,13.71
2023-10-24T20:19:02.817Z,13.67
2023-10-24T20:21:30.626Z,13.69
2023-10-24T20:23:58.447Z,13.72
2023-10-24T20:26:26.627Z,13.72
2023-10-24T20:31:12.808Z,13.75
2023-10-24T20:33:40.392Z,13.72
2023-10-24T20:36:09.100Z,13.71
2023-10-24T20:38:36.884Z,13.71
2023-10-24T20:41:04.457Z,13.70
2023-10-24T20:43:33.701Z,13.67
2023-10-24T20:46:02.617Z,13.58
2023-10-24T20:51:34.323Z,13.56
2023-10-24T20:54:01.996Z,13.60
2023-10-24T20:56:29.526Z,13.62
2023-10-24T20:58:56.950Z,13.61
2023-10-24T21:01:27.266Z,13.59
2023-10-24T21:03:58.058Z,13.64
2023-10-24T21:13:06.520Z,13.76
2023-10-24T21:15:36.218Z,13.74
2023-10-24T21:18:06.493Z,13.79
2023-10-24T21:20:37.597Z,13.84
2023-10-24T21:23:07.760Z,13.83
2023-10-24T21:25:40.090Z,13.79
2023-10-24T21:28:07.947Z,13.75
2023-10-24T21:30:35.479Z,13.75
2023-10-24T21:33:03.241Z,13.77
2023-10-24T21:35:30.790Z,13.70
2023-10-24T21:38:02.567Z,13.62
2023-10-24T21:40:30.716Z,13.55
2023-10-24T21:42:58.632Z,13.53
2023-10-24T21:45:26.737Z,13.50
2023-10-24T21:47:54.666Z,13.41
2023-10-24T21:50:26.326Z,13.29
2023-10-24T21:52:53.940Z,13.22
2023-10-24T21:55:21.532Z,13.23
2023-10-24T21:57:54.070Z,13.28
2023-10-24T22:00:53.753Z,13.28
2023-10-24T22:03:21.579Z,13.21
2023-10-24T22:05:49.469Z,13.17
2023-10-24T22:08:17.702Z,13.21
2023-10-24T22:10:45.291Z,13.27
2023-10-24T22:13:12.824Z,13.30
2023-10-24T22:15:40.791Z,13.29
2023-10-24T22:18:08.322Z,13.28
2023-10-24T22:20:35.776Z,13.33
2023-10-24T22:23:05.583Z,13.39
2023-10-24T22:25:36.517Z,13.43
2023-10-24T22:28:06.049Z,13.44
2023-10-24T22:30:35.005Z,13.44
2023-10-24T22:33:02.512Z,13.49
2023-10-24T22:35:29.986Z,13.56
2023-10-24T22:37:57.385Z,13.56
2023-10-24T22:40:24.884Z,13.49
2023-10-24T22:42:52.447Z,13.40
2023-10-24T22:45:19.993Z,13.33
2023-10-24T22:47:49.237Z,13.29
2023-10-24T22:50:17.051Z,13.26
2023-10-24T22:52:44.970Z,13.25
2023-10-24T22:55:14.956Z,13.24
2023-10-24T22:57:42.674Z,13.28
2023-10-24T23:00:11.300Z,13.35
2023-10-24T23:02:38.767Z,13.37
2023-10-24T23:05:06.838Z,13.38
2023-10-24T23:07:35.504Z,13.38
2023-10-24T23:10:09.782Z,13.40
2023-10-24T23:12:37.415Z,13.45
2023-10-24T23:15:05.333Z,13.46
2023-10-24T23:17:37.689Z,13.41
2023-10-24T23:20:05.906Z,13.38
2023-10-24T23:22:33.428Z,13.41
2023-10-24T23:25:01.021Z,13.46
2023-10-24T23:27:28.716Z,13.48
2023-10-24T23:29:58.566Z,13.46
2023-10-24T23:32:57.083Z,13.42
2023-10-24T23:38:44.444Z,13.47
2023-10-24T23:41:11.905Z,13.47
2023-10-24T23:43:39.323Z,13.47
2023-10-24T23:46:06.801Z,13.43
2023-10-24T23:48:34.456Z,13.47
2023-10-24T23:51:04.763Z,13.49
2023-10-24T23:53:32.185Z,13.47
2023-10-24T23:56:02.699Z,13.42
2023-10-24T23:58:30.855Z,13.30
